createdAt,value
2023-01-28T00:01:13.474Z,55.71
2023-01-28T00:03:42.296Z,54.99
2023-01-28T00:06:08.733Z,54.74
2023-01-28T00:08:35.177Z,56.39
2023-01-28T00:11:01.982Z,55.19
2023-01-28T00:13:28.518Z,54.63
2023-01-28T00:15:55.635Z,53.70
2023-01-28T00:18:22.228Z,54.82
2023-01-28T00:20:49.156Z,54.48
2023-01-28T00:23:15.855Z,55.59
2023-01-28T00:25:42.315Z,54.48
2023-01-28T00:28:08.689Z,54.88
2023-01-28T00:30:36.560Z,54.80
2023-01-28T00:33:03.074Z,55.24
2023-01-28T00:35:29.605Z,56.02
2023-01-28T00:37:56.155Z,54.28
2023-01-28T00:40:22.610Z,53.84
2023-01-28T00:42:49.115Z,54.28
2023-01-28T00:45:15.885Z,55.40
2023-01-28T00:47:42.482Z,55.08
2023-01-28T00:50:08.870Z,55.47
2023-01-28T00:52:36.384Z,55.70
2023-01-28T00:55:02.922Z,55.42
2023-01-28T00:57:29.577Z,56.19
2023-01-28T00:59:56.010Z,55.73
2023-01-28T01:02:22.843Z,56.93
2023-01-28T01:04:49.935Z,58.55
2023-01-28T01:07:16.530Z,56.96
2023-01-28T01:09:42.922Z,57.27
2023-01-28T01:12:11.814Z,57.55
2023-01-28T01:14:38.495Z,56.65
2023-01-28T01:17:05.103Z,58.36
2023-01-28T01:19:31.524Z,56.62
2023-01-28T01:21:58.207Z,56.35
2023-01-28T01:24:24.923Z,56.40
2023-01-28T01:26:51.734Z,56.62
2023-01-28T01:29:18.250Z,56.39
2023-01-28T01:31:44.923Z,56.87
2023-01-28T01:34:11.783Z,57.16
2023-01-28T01:36:38.205Z,58.09
2023-01-28T01:39:05.422Z,57.76
2023-01-28T01:41:32.024Z,56.20
2023-01-28T01:43:58.513Z,55.52
2023-01-28T01:46:25.023Z,55.30
2023-01-28T01:48:53.182Z,55.55
2023-01-28T01:51:20.755Z,54.44
2023-01-28T01:53:47.258Z,54.41
2023-01-28T01:56:13.908Z,53.76
2023-01-28T01:58:40.612Z,54.14
2023-01-28T02:01:07.681Z,57.43
2023-01-28T02:03:34.216Z,56.69
2023-01-28T02:06:02.551Z,54.86
2023-01-28T02:08:28.910Z,55.59
2023-01-28T02:10:55.518Z,56.20
2023-01-28T02:13:22.276Z,54.43
2023-01-28T02:15:48.706Z,55.44
2023-01-28T02:18:15.406Z,55.58
2023-01-28T02:20:42.194Z,55.78
2023-01-28T02:23:08.601Z,54.80
2023-01-28T02:25:35.143Z,56.24
2023-01-28T02:28:02.078Z,54.90
2023-01-28T02:30:28.611Z,55.46
2023-01-28T02:32:55.084Z,57.09
2023-01-28T02:35:21.645Z,58.77
2023-01-28T02:37:48.078Z,57.81
2023-01-28T02:40:14.643Z,57.38
2023-01-28T02:42:42.781Z,55.05
2023-01-28T02:45:09.246Z,53.90
2023-01-28T02:47:37.324Z,54.56
2023-01-28T02:50:03.975Z,55.34
2023-01-28T02:52:30.459Z,54.59
2023-01-28T02:54:56.919Z,53.16
2023-01-28T02:57:25.721Z,54.69
2023-01-28T02:59:52.256Z,55.28
2023-01-28T03:02:18.710Z,55.29
2023-01-28T03:04:45.230Z,55.11
2023-01-28T03:07:12.505Z,55.35
2023-01-28T03:09:38.878Z,55.92
2023-01-28T03:12:05.295Z,55.72
2023-01-28T03:14:32.548Z,57.81
2023-01-28T03:16:58.960Z,56.60
2023-01-28T03:19:25.921Z,56.79
2023-01-28T03:21:52.314Z,57.13
2023-01-28T03:24:19.227Z,56.21
2023-01-28T03:26:45.687Z,55.79
2023-01-28T03:29:12.254Z,55.47
2023-01-28T03:31:38.657Z,56.25
2023-01-28T03:34:05.911Z,57.06
2023-01-28T03:36:32.327Z,60.84
2023-01-28T03:38:58.809Z,58.31
2023-01-28T03:41:25.215Z,57.36
2023-01-28T03:43:51.872Z,56.88
2023-01-28T03:46:18.754Z,58.27
2023-01-28T03:48:45.279Z,56.31
2023-01-28T03:51:11.738Z,57.66
2023-01-28T03:53:38.241Z,56.37
2023-01-28T03:56:05.108Z,55.92
2023-01-28T03:58:32.149Z,55.83
2023-01-28T04:00:58.654Z,58.90
2023-01-28T04:03:25.481Z,58.43
2023-01-28T04:05:52.210Z,57.00
2023-01-28T04:08:19.014Z,57.85
2023-01-28T04:10:46.435Z,56.48
2023-01-28T04:13:13.597Z,57.85
2023-01-28T04:15:40.097Z,59.54
2023-01-28T04:18:06.727Z,56.76
2023-01-28T04:20:33.345Z,58.28
2023-01-28T04:23:00.010Z,64.06
2023-01-28T04:25:26.431Z,60.77
2023-01-28T04:27:53.363Z,60.64
2023-01-28T04:30:21.033Z,58.99
2023-01-28T04:32:47.472Z,59.17
2023-01-28T04:35:14.575Z,57.19
2023-01-28T04:37:41.589Z,58.18
2023-01-28T04:40:08.506Z,59.21
2023-01-28T04:42:35.099Z,59.35
2023-01-28T04:45:01.575Z,60.09
2023-01-28T04:47:28.138Z,59.67
2023-01-28T04:49:54.877Z,58.93
2023-01-28T04:52:21.477Z,60.06
2023-01-28T04:54:50.263Z,58.93
2023-01-28T04:57:16.773Z,59.98
2023-01-28T04:59:43.351Z,60.64
2023-01-28T05:02:10.035Z,60.24
2023-01-28T05:04:36.743Z,59.16
2023-01-28T05:07:03.247Z,57.62
2023-01-28T05:09:30.098Z,59.54
2023-01-28T05:11:56.778Z,58.36
2023-01-28T05:14:23.293Z,59.36
2023-01-28T05:16:49.901Z,58.42
2023-01-28T05:19:17.565Z,59.03
2023-01-28T05:21:44.234Z,57.92
2023-01-28T05:24:11.160Z,57.23
2023-01-28T05:26:37.839Z,58.30
2023-01-28T05:29:04.557Z,57.10
2023-01-28T05:31:31.014Z,60.14
2023-01-28T05:33:57.479Z,59.59
2023-01-28T05:36:23.882Z,59.37
2023-01-28T05:38:50.457Z,58.02
2023-01-28T05:41:16.928Z,60.20
2023-01-28T05:43:43.439Z,58.33
2023-01-28T05:46:09.943Z,58.94
2023-01-28T05:48:36.460Z,58.81
2023-01-28T05:51:02.900Z,59.93
2023-01-28T05:53:29.479Z,59.32
2023-01-28T05:55:55.873Z,59.75
2023-01-28T05:58:22.539Z,60.13
2023-01-28T06:00:49.059Z,59.74
2023-01-28T06:03:15.671Z,60.06
2023-01-28T06:05:42.162Z,59.11
2023-01-28T06:08:08.622Z,60.55
2023-01-28T06:10:35.047Z,58.47
2023-01-28T06:13:01.589Z,58.50
2023-01-28T06:15:28.301Z,59.25
2023-01-28T06:17:54.842Z,57.90
2023-01-28T06:20:21.236Z,59.89
2023-01-28T06:22:49.678Z,61.75
2023-01-28T06:25:16.172Z,59.23
2023-01-28T06:27:42.622Z,58.85
2023-01-28T06:30:09.043Z,60.69
2023-01-28T06:32:35.435Z,60.33
2023-01-28T06:35:02.067Z,60.97
2023-01-28T06:37:28.973Z,57.80
2023-01-28T06:39:55.399Z,58.54
2023-01-28T06:42:22.121Z,59.25
2023-01-28T06:44:48.881Z,59.04
2023-01-28T06:47:15.635Z,57.41
2023-01-28T06:49:42.092Z,62.18
2023-01-28T06:52:08.948Z,61.27
2023-01-28T06:54:35.374Z,60.27
2023-01-28T06:57:01.797Z,57.91
2023-01-28T06:59:28.431Z,59.96
2023-01-28T07:01:55.190Z,59.78
2023-01-28T07:04:21.723Z,60.39
2023-01-28T07:06:48.643Z,59.75
2023-01-28T07:09:15.574Z,59.33
2023-01-28T07:11:42.267Z,60.47
2023-01-28T07:14:08.730Z,58.52
2023-01-28T07:16:35.150Z,60.14
2023-01-28T07:19:01.630Z,58.09
2023-01-28T07:21:28.058Z,59.64
2023-01-28T07:23:54.712Z,60.10
2023-01-28T07:26:21.202Z,59.05
2023-01-28T07:28:47.626Z,60.79
2023-01-28T07:31:14.466Z,60.53
2023-01-28T07:33:40.995Z,60.33
2023-01-28T07:36:09.971Z,58.92
2023-01-28T07:38:36.473Z,59.72
2023-01-28T07:41:02.906Z,58.58
2023-01-28T07:43:29.589Z,59.85
2023-01-28T07:45:56.107Z,59.71
2023-01-28T07:48:22.516Z,58.40
2023-01-28T07:50:48.998Z,58.50
2023-01-28T07:53:15.414Z,59.42
2023-01-28T07:55:41.866Z,59.99
2023-01-28T07:58:08.335Z,60.15
2023-01-28T08:00:34.972Z,58.40
2023-01-28T08:03:01.579Z,58.44
2023-01-28T08:05:28.781Z,60.01
2023-01-28T08:07:55.951Z,61.41
2023-01-28T08:10:22.530Z,61.47
2023-01-28T08:12:49.543Z,58.78
2023-01-28T08:15:15.954Z,60.78
2023-01-28T08:17:42.391Z,59.51
2023-01-28T08:20:08.891Z,58.73
2023-01-28T08:22:35.646Z,57.96
2023-01-28T08:25:02.151Z,58.03
2023-01-28T08:27:28.480Z,57.60
2023-01-28T08:29:54.874Z,57.77
2023-01-28T08:32:21.408Z,57.65
2023-01-28T08:34:48.026Z,56.70
2023-01-28T08:37:14.434Z,57.25
2023-01-28T08:39:41.002Z,56.08
2023-01-28T08:42:07.448Z,56.51
2023-01-28T08:44:33.908Z,57.46
2023-01-28T08:47:06.736Z,57.85
2023-01-28T08:49:35.164Z,58.50
2023-01-28T08:52:01.638Z,58.94
2023-01-28T08:54:30.413Z,58.70
2023-01-28T08:56:57.184Z,60.08
2023-01-28T08:59:23.659Z,60.08
2023-01-28T09:01:50.084Z,59.83
2023-01-28T09:04:16.952Z,62.11
2023-01-28T09:06:43.463Z,59.91
2023-01-28T09:09:09.829Z,59.02
2023-01-28T09:11:37.264Z,60.50
2023-01-28T09:14:04.054Z,58.99
2023-01-28T09:16:30.530Z,58.75
2023-01-28T09:18:57.002Z,59.70
2023-01-28T09:21:23.540Z,58.96
2023-01-28T09:23:50.097Z,60.22
2023-01-28T09:26:16.994Z,61.91
2023-01-28T09:28:43.420Z,60.82
2023-01-28T09:31:10.024Z,60.14
2023-01-28T09:33:36.468Z,61.03
2023-01-28T09:36:03.002Z,57.49
2023-01-28T09:38:29.735Z,57.38
2023-01-28T09:40:56.167Z,57.76
2023-01-28T09:43:24.483Z,59.61
2023-01-28T09:45:50.975Z,62.08
2023-01-28T09:48:17.570Z,60.27
2023-01-28T09:50:46.106Z,57.90
2023-01-28T09:53:12.542Z,57.05
2023-01-28T09:55:39.335Z,57.02
2023-01-28T09:58:05.825Z,58.78
2023-01-28T10:00:32.348Z,59.20
2023-01-28T10:02:58.938Z,58.29
2023-01-28T10:05:25.488Z,60.63
2023-01-28T10:07:52.914Z,61.39
2023-01-28T10:10:21.096Z,61.47
2023-01-28T10:12:47.582Z,62.26
2023-01-28T10:15:14.008Z,59.77
2023-01-28T10:17:40.759Z,58.19
2023-01-28T10:20:07.636Z,58.68
2023-01-28T10:22:34.241Z,61.39
2023-01-28T10:25:00.772Z,60.25
2023-01-28T10:27:27.335Z,58.18
2023-01-28T10:29:54.304Z,59.54
2023-01-28T10:32:20.753Z,58.67
2023-01-28T10:34:47.438Z,58.50
2023-01-28T10:37:13.881Z,58.38
2023-01-28T10:39:40.340Z,57.32
2023-01-28T10:42:06.850Z,58.60
2023-01-28T10:44:33.363Z,60.47
2023-01-28T10:46:59.745Z,59.87
2023-01-28T10:49:26.680Z,59.08
2023-01-28T10:51:53.181Z,59.59
2023-01-28T10:54:21.964Z,60.58
2023-01-28T10:56:48.493Z,59.44
2023-01-28T10:59:15.360Z,56.85
2023-01-28T11:01:44.662Z,58.71
2023-01-28T11:04:11.509Z,58.99
2023-01-28T11:06:37.957Z,58.71
2023-01-28T11:09:04.482Z,59.78
2023-01-28T11:11:31.248Z,59.71
2023-01-28T11:13:57.705Z,58.58
2023-01-28T11:16:24.601Z,58.61
2023-01-28T11:18:51.175Z,58.70
2023-01-28T11:21:17.525Z,58.43
2023-01-28T11:23:44.221Z,60.23
2023-01-28T11:26:10.777Z,59.55
2023-01-28T11:28:37.443Z,56.90
2023-01-28T11:31:03.994Z,58.89
2023-01-28T11:33:32.604Z,57.46
2023-01-28T11:35:59.032Z,57.88
2023-01-28T11:38:25.723Z,57.25
2023-01-28T11:40:54.179Z,57.50
2023-01-28T11:43:20.595Z,55.67
2023-01-28T11:45:47.201Z,55.04
2023-01-28T11:48:13.896Z,55.44
2023-01-28T11:50:40.829Z,55.35
2023-01-28T11:53:08.134Z,56.05
2023-01-28T11:55:36.025Z,57.51
2023-01-28T11:58:02.516Z,60.34
2023-01-28T12:00:28.964Z,59.89
2023-01-28T12:02:55.487Z,57.66
2023-01-28T12:05:21.971Z,57.85
2023-01-28T12:07:49.690Z,60.48
2023-01-28T12:10:16.499Z,59.17
2023-01-28T12:12:43.137Z,58.92
2023-01-28T12:15:09.567Z,58.97
2023-01-28T12:17:36.009Z,56.61
2023-01-28T12:20:02.687Z,58.85
2023-01-28T12:22:29.130Z,57.75
2023-01-28T12:24:55.630Z,57.53
2023-01-28T12:27:22.201Z,56.19
2023-01-28T12:29:49.031Z,57.21
2023-01-28T12:32:15.696Z,58.41
2023-01-28T12:34:42.435Z,59.97
2023-01-28T12:37:08.859Z,58.97
2023-01-28T12:39:35.725Z,59.68
2023-01-28T12:42:02.561Z,60.30
2023-01-28T12:44:28.972Z,58.37
2023-01-28T12:46:55.848Z,57.53
2023-01-28T12:49:22.615Z,58.29
2023-01-28T12:51:49.150Z,59.89
2023-01-28T12:54:15.701Z,59.05
2023-01-28T12:56:42.215Z,57.08
2023-01-28T12:59:08.702Z,56.72
2023-01-28T13:01:35.144Z,58.81
2023-01-28T13:04:01.906Z,58.48
2023-01-28T13:06:28.764Z,56.67
2023-01-28T13:08:55.161Z,55.60
2023-01-28T13:11:23.277Z,56.67
2023-01-28T13:13:49.707Z,57.95
2023-01-28T13:16:17.901Z,59.36
2023-01-28T13:18:45.878Z,56.51
2023-01-28T13:21:12.605Z,56.33
2023-01-28T13:23:39.298Z,56.47
2023-01-28T13:26:06.173Z,58.17
2023-01-28T13:28:32.854Z,57.41
2023-01-28T13:30:59.341Z,56.12
2023-01-28T13:33:26.046Z,56.83
2023-01-28T13:35:52.526Z,56.12
2023-01-28T13:38:19.206Z,55.93
2023-01-28T13:40:45.873Z,58.51
2023-01-28T13:43:12.602Z,56.96
2023-01-28T13:45:39.226Z,55.46
2023-01-28T13:48:05.677Z,61.19
2023-01-28T13:50:32.111Z,59.08
2023-01-28T13:52:58.613Z,57.10
2023-01-28T13:55:41.639Z,57.17
2023-01-28T13:58:10.575Z,57.01
2023-01-28T14:00:36.970Z,56.64
2023-01-28T14:03:03.457Z,57.08
2023-01-28T14:05:29.884Z,56.15
2023-01-28T14:07:56.661Z,57.73
2023-01-28T14:10:23.387Z,58.67
2023-01-28T14:12:49.830Z,58.16
2023-01-28T14:15:17.474Z,57.58
2023-01-28T14:17:44.152Z,58.40
2023-01-28T14:20:10.684Z,59.41
2023-01-28T14:22:37.243Z,58.06
2023-01-28T14:25:05.267Z,57.33
2023-01-28T14:27:34.903Z,56.96
2023-01-28T14:30:03.196Z,58.96
2023-01-28T14:32:29.610Z,60.98
2023-01-28T14:34:56.061Z,58.41
2023-01-28T14:37:22.458Z,57.98
2023-01-28T14:39:49.963Z,58.79
2023-01-28T14:42:16.863Z,57.86
2023-01-28T14:44:43.542Z,56.70
2023-01-28T14:47:10.419Z,57.97
2023-01-28T14:49:37.062Z,61.28
2023-01-28T14:52:03.517Z,58.69
2023-01-28T14:54:30.791Z,59.91
2023-01-28T14:56:57.382Z,58.70
2023-01-28T14:59:23.825Z,59.03
2023-01-28T15:01:50.429Z,58.96
2023-01-28T15:04:16.828Z,61.25
2023-01-28T15:06:43.982Z,61.30
2023-01-28T15:09:10.524Z,59.84
2023-01-28T15:11:37.117Z,62.04
2023-01-28T15:14:03.585Z,61.55
2023-01-28T15:16:30.386Z,59.21
2023-01-28T15:18:56.817Z,59.00
2023-01-28T15:21:23.165Z,59.07
2023-01-28T15:23:51.435Z,61.37
2023-01-28T15:26:17.941Z,62.08
2023-01-28T15:28:44.785Z,63.08
2023-01-28T15:31:11.914Z,59.94
2023-01-28T15:33:39.258Z,60.78
2023-01-28T15:36:05.714Z,61.44
2023-01-28T15:38:32.181Z,58.74
2023-01-28T15:40:58.719Z,60.33
2023-01-28T15:43:25.992Z,58.43
2023-01-28T15:45:52.588Z,58.96
2023-01-28T15:48:19.060Z,59.50
2023-01-28T15:50:45.764Z,59.52
2023-01-28T15:53:12.284Z,61.51
2023-01-28T15:55:38.807Z,60.60
2023-01-28T15:58:05.574Z,61.00
2023-01-28T16:00:32.462Z,63.47
2023-01-28T16:02:59.506Z,61.00
2023-01-28T16:05:26.062Z,61.12
2023-01-28T16:07:52.685Z,60.81
2023-01-28T16:10:19.142Z,59.20
2023-01-28T16:12:45.557Z,58.78
2023-01-28T16:15:11.937Z,57.57
2023-01-28T16:17:39.017Z,57.91
2023-01-28T16:20:05.729Z,59.42
2023-01-28T16:22:32.409Z,59.49
2023-01-28T16:24:58.843Z,61.82
2023-01-28T16:27:26.322Z,60.58
2023-01-28T16:29:53.218Z,60.01
2023-01-28T16:32:19.918Z,59.56
2023-01-28T16:34:46.719Z,59.88
2023-01-28T16:37:13.183Z,61.72
2023-01-28T16:39:39.749Z,61.37
2023-01-28T16:42:06.164Z,60.34
2023-01-28T16:44:32.695Z,59.50
2023-01-28T16:46:59.366Z,59.92
2023-01-28T16:49:25.833Z,59.47
2023-01-28T16:51:52.289Z,60.24
2023-01-28T16:54:18.915Z,59.68
2023-01-28T16:56:47.070Z,60.47
2023-01-28T16:59:14.026Z,60.06
2023-01-28T17:01:40.988Z,59.13
2023-01-28T17:04:09.643Z,60.78
2023-01-28T17:06:36.928Z,61.19
2023-01-28T17:09:03.547Z,59.77
2023-01-28T17:11:30.377Z,59.16
2023-01-28T17:13:56.900Z,62.67
2023-01-28T17:16:24.747Z,61.86
2023-01-28T17:18:51.740Z,60.62
2023-01-28T17:21:18.584Z,59.71
2023-01-28T17:23:45.390Z,59.77
2023-01-28T17:26:11.847Z,59.89
2023-01-28T17:28:38.936Z,60.25
2023-01-28T17:31:06.550Z,61.53
2023-01-28T17:33:34.175Z,62.40
2023-01-28T17:36:00.657Z,61.51
2023-01-28T17:38:28.535Z,60.87
2023-01-28T17:40:55.015Z,61.12
2023-01-28T17:43:25.072Z,61.54
2023-01-28T17:45:52.215Z,60.78
2023-01-28T17:48:18.709Z,62.81
2023-01-28T17:50:46.047Z,62.83
2023-01-28T17:53:13.847Z,60.04
2023-01-28T17:55:40.648Z,59.94
2023-01-28T17:58:09.887Z,60.33
2023-01-28T18:00:36.886Z,61.02
2023-01-28T18:03:03.619Z,62.22
2023-01-28T18:05:30.092Z,62.96
2023-01-28T18:07:58.550Z,60.81
2023-01-28T18:10:25.774Z,61.27
2023-01-28T18:12:53.362Z,60.88
2023-01-28T18:15:20.096Z,60.71
2023-01-28T18:17:48.143Z,60.70
2023-01-28T18:20:14.786Z,58.44
2023-01-28T18:22:41.228Z,60.58
2023-01-28T18:25:08.060Z,61.77
2023-01-28T18:27:35.324Z,61.09
2023-01-28T18:30:01.822Z,60.78
2023-01-28T18:32:28.515Z,59.28
2023-01-28T18:34:55.113Z,57.99
2023-01-28T18:37:23.171Z,58.91
2023-01-28T18:39:52.185Z,58.82
2023-01-28T18:42:20.614Z,57.42
2023-01-28T18:44:47.219Z,58.45
2023-01-28T18:47:13.784Z,58.00
2023-01-28T18:49:41.344Z,58.43
2023-01-28T18:52:07.925Z,57.54
2023-01-28T18:54:34.484Z,56.57
2023-01-28T18:57:02.182Z,57.65
2023-01-28T18:59:28.783Z,60.29
2023-01-28T19:01:55.895Z,59.20
2023-01-28T19:04:22.776Z,61.32
2023-01-28T19:06:49.917Z,61.27
2023-01-28T19:09:16.982Z,60.56
2023-01-28T19:11:45.349Z,61.65
2023-01-28T19:14:12.237Z,61.05
2023-01-28T19:16:39.334Z,59.00
2023-01-28T19:19:06.335Z,60.43
2023-01-28T19:21:33.614Z,65.11
2023-01-28T19:24:00.367Z,63.44
2023-01-28T19:26:27.152Z,60.33
2023-01-28T19:28:53.932Z,60.17
2023-01-28T19:31:20.967Z,60.99
2023-01-28T19:33:47.854Z,61.72
2023-01-28T19:36:14.547Z,62.73
2023-01-28T19:38:42.862Z,60.00
2023-01-28T19:41:09.386Z,60.60
2023-01-28T19:43:37.266Z,60.73
2023-01-28T19:46:04.225Z,59.24
2023-01-28T19:48:31.094Z,61.60
2023-01-28T19:50:58.118Z,62.91
2023-01-28T19:53:25.008Z,61.03
2023-01-28T19:55:54.912Z,59.22
2023-01-28T19:58:25.067Z,60.18
2023-01-28T20:00:51.971Z,61.15
2023-01-28T20:03:18.728Z,58.85
2023-01-28T20:05:45.583Z,58.49
2023-01-28T20:08:12.940Z,59.35
2023-01-28T20:10:40.843Z,59.47
2023-01-28T20:13:08.060Z,60.14
2023-01-28T20:15:34.916Z,58.94
2023-01-28T20:18:01.901Z,59.44
2023-01-28T20:20:29.899Z,58.58
2023-01-28T20:22:56.939Z,59.05
2023-01-28T20:25:24.358Z,58.19
2023-01-28T20:27:51.176Z,57.88
2023-01-28T20:30:17.819Z,58.55
2023-01-28T20:32:44.242Z,57.81
2023-01-28T20:35:11.147Z,57.66
2023-01-28T20:37:42.238Z,56.94
2023-01-28T20:40:08.935Z,57.64
2023-01-28T20:42:38.796Z,57.89
2023-01-28T20:45:06.051Z,57.53
2023-01-28T20:47:32.686Z,59.37
2023-01-28T20:49:59.850Z,58.15
2023-01-28T20:52:28.497Z,58.27
2023-01-28T20:54:55.723Z,58.11
2023-01-28T20:57:22.318Z,57.41
2023-01-28T20:59:49.591Z,57.96
2023-01-28T21:02:19.814Z,58.70
2023-01-28T21:04:47.567Z,57.19
2023-01-28T21:07:22.496Z,56.87
2023-01-28T21:09:49.487Z,56.32
2023-01-28T21:12:17.311Z,56.75
2023-01-28T21:14:44.180Z,55.76
2023-01-28T21:17:10.915Z,57.70
2023-01-28T21:19:37.745Z,56.97
2023-01-28T21:22:04.748Z,58.26
2023-01-28T21:24:31.367Z,57.30
2023-01-28T21:26:58.160Z,58.76
2023-01-28T21:29:25.394Z,56.91
2023-01-28T21:31:51.968Z,56.44
2023-01-28T21:34:19.551Z,56.02
2023-01-28T21:36:46.398Z,56.78
2023-01-28T21:39:12.883Z,56.74
2023-01-28T21:41:40.663Z,57.85
2023-01-28T21:44:07.688Z,57.99
2023-01-28T21:46:34.827Z,58.31
2023-01-28T21:49:01.491Z,59.20
2023-01-28T21:51:28.940Z,59.45
2023-01-28T21:53:55.676Z,57.55
2023-01-28T21:56:24.416Z,59.50
2023-01-28T21:58:51.033Z,58.62
2023-01-28T22:01:22.469Z,57.75
2023-01-28T22:03:49.020Z,56.58
2023-01-28T22:06:15.421Z,58.00
2023-01-28T22:08:41.918Z,57.37
2023-01-28T22:11:10.613Z,56.83
2023-01-28T22:13:37.099Z,57.09
2023-01-28T22:16:04.845Z,57.43
2023-01-28T22:18:31.334Z,56.11
2023-01-28T22:20:58.311Z,57.29
2023-01-28T22:23:25.280Z,57.40
2023-01-28T22:25:51.863Z,55.88
2023-01-28T22:28:18.324Z,56.18
2023-01-28T22:30:44.777Z,56.08
2023-01-28T22:33:11.490Z,54.75
2023-01-28T22:35:38.242Z,54.82
2023-01-28T22:38:04.716Z,58.11
2023-01-28T22:40:31.164Z,56.04
2023-01-28T22:42:57.731Z,56.26
2023-01-28T22:45:24.291Z,55.84
2023-01-28T22:47:50.718Z,55.36
2023-01-28T22:50:17.386Z,56.22
2023-01-28T22:52:44.040Z,56.07
2023-01-28T22:55:10.663Z,54.69
2023-01-28T22:57:38.118Z,57.24
2023-01-28T23:00:06.691Z,58.06
2023-01-28T23:02:33.570Z,57.51
2023-01-28T23:05:00.128Z,57.60
2023-01-28T23:07:26.631Z,56.29
2023-01-28T23:09:53.061Z,55.63
2023-01-28T23:12:19.698Z,56.48
2023-01-28T23:14:46.156Z,55.96
2023-01-28T23:17:12.884Z,58.53
2023-01-28T23:19:39.709Z,57.99
2023-01-28T23:22:06.180Z,57.57
2023-01-28T23:24:32.622Z,58.44
2023-01-28T23:26:59.824Z,55.28
2023-01-28T23:29:27.379Z,56.03
2023-01-28T23:31:54.330Z,57.28
2023-01-28T23:34:20.786Z,54.97
2023-01-28T23:36:47.236Z,55.29
2023-01-28T23:39:13.845Z,55.67
2023-01-28T23:41:40.457Z,56.65
2023-01-28T23:44:06.902Z,55.48
2023-01-28T23:46:39.377Z,54.71
2023-01-28T23:49:06.470Z,54.54
2023-01-28T23:51:32.911Z,53.74
2023-01-28T23:54:02.147Z,53.81
2023-01-28T23:56:28.768Z,54.05
2023-01-28T23:58:55.643Z,53.49
